Time;durP1;ratioP1;P1;durP2;ratioP2;P2;SDS_P1;SDS_P2;PMS_P1;PMS_P2;Temp;Humidity;BMP_temperature;BMP_pressure;BME280_temperature;BME280_humidity;BME280_pressure;Samples;Min_cycle;Max_cycle;Signal;HPM_P1;HPM_P2
2023/10/11 00:00:56;;;;;;;16.85;9.73;;;;;;;;;;12696526;22;20339;-67
2023/10/11 00:05:54;;;;;;;17.70;9.00;;;;;;;;;;12697454;23;20066;-69
2023/10/11 00:10:53;;;;;;;13.65;9.00;;;;;;;;;;12696410;22;20496;-67
2023/10/11 00:15:51;;;;;;;13.07;8.73;;;;;;;;;;12695404;23;20537;-67
2023/10/11 00:20:52;;;;;;;14.43;8.30;;;;;;;;;;12697035;22;20024;-67
2023/10/11 00:25:53;;;;;;;14.98;8.95;;;;;;;;;;12694665;23;20078;-68
2023/10/11 00:30:50;;;;;;;13.13;8.70;;;;;;;;;;12695583;22;20247;-68
2023/10/11 00:35:48;;;;;;;18.67;9.02;;;;;;;;;;12695327;23;20028;-67
2023/10/11 00:40:45;;;;;;;12.95;8.73;;;;;;;;;;12689618;22;20115;-67
2023/10/11 00:45:43;;;;;;;12.30;8.82;;;;;;;;;;12696300;23;20024;-68
2023/10/11 00:50:39;;;;;;;14.20;8.63;;;;;;;;;;12695922;22;20103;-67
2023/10/11 00:55:36;;;;;;;13.50;8.70;;;;;;;;;;12668680;23;20031;-68
2023/10/11 01:00:36;;;;;;;10.15;8.75;;;;;;;;;;12695752;22;20492;-69
2023/10/11 01:05:33;;;;;;;11.43;8.25;;;;;;;;;;12695032;23;20028;-68
2023/10/11 01:10:29;;;;;;;13.30;8.77;;;;;;;;;;12695670;22;20555;-68
2023/10/11 01:15:25;;;;;;;13.68;8.75;;;;;;;;;;12695656;23;20028;-68
2023/10/11 01:20:22;;;;;;;21.00;8.82;;;;;;;;;;12696011;22;20043;-67
2023/10/11 01:25:18;;;;;;;13.38;9.27;;;;;;;;;;12695646;23;20027;-67
2023/10/11 01:30:15;;;;;;;14.35;9.77;;;;;;;;;;12691258;22;20028;-67
2023/10/11 01:35:19;;;;;;;11.50;9.02;;;;;;;;;;12695256;23;20078;-67
2023/10/11 01:40:20;;;;;;;14.82;9.00;;;;;;;;;;12695532;22;20028;-67
2023/10/11 01:45:17;;;;;;;12.85;9.27;;;;;;;;;;12689117;22;20032;-68
2023/10/11 01:50:15;;;;;;;14.07;8.88;;;;;;;;;;12695354;22;20035;-68
2023/10/11 01:55:13;;;;;;;15.02;9.57;;;;;;;;;;12694728;23;20509;-67
2023/10/11 02:00:13;;;;;;;18.67;10.70;;;;;;;;;;12694127;22;20024;-66
2023/10/11 02:05:17;;;;;;;14.30;9.02;;;;;;;;;;12693955;23;20075;-69
2023/10/11 02:10:14;;;;;;;14.35;9.73;;;;;;;;;;12693873;22;20074;-68
2023/10/11 02:15:28;;;;;;;15.93;10.15;;;;;;;;;;12693684;23;20062;-64
2023/10/11 02:20:24;;;;;;;16.50;9.90;;;;;;;;;;12695037;22;20016;-64
2023/10/11 02:25:24;;;;;;;15.25;10.48;;;;;;;;;;12689218;23;20024;-66
2023/10/11 02:30:22;;;;;;;20.85;10.93;;;;;;;;;;12695210;22;20039;-65
2023/10/11 02:35:20;;;;;;;16.25;10.40;;;;;;;;;;12695477;23;20020;-65
2023/10/11 02:40:16;;;;;;;14.95;10.15;;;;;;;;;;12696589;22;20067;-65
2023/10/11 02:45:13;;;;;;;13.52;10.30;;;;;;;;;;12692129;22;20020;-65
2023/10/11 02:50:09;;;;;;;15.55;10.38;;;;;;;;;;12698638;22;20035;-67
2023/10/11 03:00:33;;;;;;;13.10;10.43;;;;;;;;;;12697942;22;20020;-65
2023/10/11 03:05:30;;;;;;;16.10;10.48;;;;;;;;;;12697237;23;20016;-65
2023/10/11 03:10:26;;;;;;;17.80;12.20;;;;;;;;;;12697314;22;20020;-65
2023/10/11 03:15:22;;;;;;;18.70;11.07;;;;;;;;;;12671457;23;20035;-66
2023/10/11 03:20:28;;;;;;;16.70;11.75;;;;;;;;;;12695225;22;20078;-65
2023/10/11 03:25:29;;;;;;;19.55;11.65;;;;;;;;;;12690546;22;20107;-66
2023/10/11 03:30:25;;;;;;;18.50;11.63;;;;;;;;;;12697351;22;20028;-65
2023/10/11 03:35:25;;;;;;;14.50;11.68;;;;;;;;;;12697866;23;20489;-66
2023/10/11 03:45:49;;;;;;;17.20;12.05;;;;;;;;;;12653513;23;20028;-65
2023/10/11 03:50:52;;;;;;;18.23;11.98;;;;;;;;;;12691361;22;20031;-66
2023/10/11 03:55:49;;;;;;;21.33;11.02;;;;;;;;;;12696559;23;20035;-65
2023/10/11 04:00:48;;;;;;;14.65;11.40;;;;;;;;;;12696694;22;20111;-65
2023/10/11 04:05:47;;;;;;;16.85;12.15;;;;;;;;;;12696650;23;20032;-68
2023/10/11 04:10:49;;;;;;;17.63;12.38;;;;;;;;;;12696208;22;20028;-66
2023/10/11 04:15:49;;;;;;;18.55;12.60;;;;;;;;;;12696932;23;20028;-65
2023/10/11 04:20:59;;;;;;;15.63;12.48;;;;;;;;;;12696543;22;20526;-66
2023/10/11 04:25:56;;;;;;;17.67;11.50;;;;;;;;;;12689855;22;20055;-65
2023/10/11 04:31:27;;;;;;;23.58;13.75;;;;;;;;;;12696521;22;20024;-66
2023/10/11 04:36:09;;;;;;;20.88;12.25;;;;;;;;;;12694400;23;20040;-67
2023/10/11 04:41:14;;;;;;;18.15;12.63;;;;;;;;;;12694080;22;20024;-67
2023/10/11 04:46:15;;;;;;;16.38;11.63;;;;;;;;;;12695187;23;20031;-68
2023/10/11 05:06:43;;;;;;;17.83;12.27;;;;;;;;;;12694254;23;20062;-67
2023/10/11 05:11:44;;;;;;;16.95;11.98;;;;;;;;;;12692884;22;20031;-70
2023/10/11 05:16:44;;;;;;;14.63;12.55;;;;;;;;;;12689485;23;20044;-72
2023/10/11 05:21:43;;;;;;;18.20;12.77;;;;;;;;;;12687896;22;20031;-73
2023/10/11 05:27:03;;;;;;;18.80;13.85;;;;;;;;;;12684300;22;20035;-72
2023/10/11 05:53:50;;;;;;;17.30;13.13;;;;;;;;;;12692854;22;20336;-70
2023/10/11 05:58:50;;;;;;;15.82;12.93;;;;;;;;;;12693197;23;20055;-70
2023/10/11 06:03:51;;;;;;;17.85;13.02;;;;;;;;;;12661101;22;20020;-70
2023/10/11 06:08:47;;;;;;;16.17;12.65;;;;;;;;;;12694308;22;20027;-70
2023/10/11 06:13:44;;;;;;;17.70;13.30;;;;;;;;;;12697422;22;20061;-70
2023/10/11 06:18:52;;;;;;;14.65;12.40;;;;;;;;;;12698032;22;20377;-70
2023/10/11 06:23:53;;;;;;;16.30;12.68;;;;;;;;;;12718787;22;20046;-70
2023/10/11 06:29:02;;;;;;;17.20;13.23;;;;;;;;;;12817374;22;20118;-70
2023/10/11 06:34:01;;;;;;;15.02;12.52;;;;;;;;;;12752109;22;20058;-70
2023/10/11 06:38:57;;;;;;;18.00;13.13;;;;;;;;;;12823227;22;20477;-70
2023/10/11 06:43:54;;;;;;;23.25;13.23;;;;;;;;;;12821929;22;20764;-70
2023/10/11 06:48:53;;;;;;;16.58;12.80;;;;;;;;;;12823109;22;20677;-70
2023/10/11 06:59:00;;;;;;;25.45;12.90;;;;;;;;;;12683152;22;20339;-71
2023/10/11 07:09:22;;;;;;;19.15;13.30;;;;;;;;;;12696289;23;20469;-70
2023/10/11 07:20:44;;;;;;;17.30;13.20;;;;;;;;;;12695110;22;20108;-71
2023/10/11 07:25:37;;;;;;;16.63;12.15;;;;;;;;;;12690152;22;20031;-70
2023/10/11 07:35:51;;;;;;;16.38;12.20;;;;;;;;;;12663591;22;20540;-71
2023/10/11 07:41:40;;;;;;;;;;;;;;;;;;;;;
2023/10/11 07:46:54;;;;;;;18.42;12.13;;;;;;;;;;12649912;23;20017;-71
2023/10/11 07:57:04;;;;;;;19.37;12.07;;;;;;;;;;12694738;22;20020;-72
2023/10/11 08:07:16;;;;;;;18.40;11.55;;;;;;;;;;12695019;22;20024;-71
2023/10/11 08:12:14;;;;;;;15.85;12.80;;;;;;;;;;12695950;22;20082;-72
2023/10/11 08:17:14;;;;;;;17.25;12.95;;;;;;;;;;12694780;23;20032;-72
2023/10/11 08:27:28;;;;;;;23.23;12.00;;;;;;;;;;12710726;22;20631;-72
2023/10/11 08:32:27;;;;;;;17.35;13.20;;;;;;;;;;12819821;22;20023;-72
2023/10/11 08:37:23;;;;;;;25.73;12.45;;;;;;;;;;12819770;22;20023;-72
2023/10/11 08:42:20;;;;;;;17.52;13.20;;;;;;;;;;12819932;22;20027;-71
2023/10/11 08:47:19;;;;;;;18.60;13.48;;;;;;;;;;12819145;22;20158;-72
2023/10/11 08:52:53;;;;;;;;;;;;;;;;;;;;;
2023/10/11 08:58:23;;;;;;;20.33;14.27;;;;;;;;;;12694489;23;20024;-72
2023/10/11 09:09:04;;;;;;;22.85;14.10;;;;;;;;;;12692511;22;20020;-72
2023/10/11 09:40:35;;;;;;;21.75;15.10;;;;;;;;;;12746954;22;1216266;-70
2023/10/11 09:45:42;;;;;;;21.67;15.15;;;;;;;;;;12473755;23;20025;-70
2023/10/11 09:55:55;;;;;;;18.70;14.60;;;;;;;;;;12598774;23;20025;-70
2023/10/11 10:01:24;;;;;;;21.93;15.90;;;;;;;;;;12588611;23;20359;-71
2023/10/11 10:06:24;;;;;;;19.85;15.63;;;;;;;;;;12522566;23;20052;-70
2023/10/11 10:11:21;;;;;;;22.80;15.02;;;;;;;;;;12588189;23;20048;-70
2023/10/11 10:16:17;;;;;;;23.95;16.73;;;;;;;;;;12588283;23;20029;-70
2023/10/11 10:21:17;;;;;;;25.58;15.77;;;;;;;;;;12584993;23;20411;-70
2023/10/11 10:26:19;;;;;;;21.35;14.90;;;;;;;;;;12588628;23;20171;-70
2023/10/11 10:36:31;;;;;;;19.50;15.52;;;;;;;;;;12592437;23;20028;-70
2023/10/11 10:41:30;;;;;;;19.83;16.65;;;;;;;;;;12613820;23;20425;-70
2023/10/11 10:46:26;;;;;;;23.75;16.02;;;;;;;;;;12573831;23;20021;-70
2023/10/11 10:51:29;;;;;;;23.58;18.05;;;;;;;;;;12578220;22;20095;-70
2023/10/11 10:56:26;;;;;;;21.23;17.70;;;;;;;;;;12573344;23;20033;-71
2023/10/11 11:01:34;;;;;;;24.25;18.23;;;;;;;;;;12595821;22;20526;-70
2023/10/11 11:06:40;;;;;;;22.83;17.30;;;;;;;;;;12633445;23;20410;-70
2023/10/11 11:11:37;;;;;;;25.65;18.60;;;;;;;;;;12635125;23;20037;-70
2023/10/11 11:16:38;;;;;;;24.52;19.05;;;;;;;;;;12633909;23;20105;-70
2023/10/11 11:21:44;;;;;;;27.75;20.75;;;;;;;;;;12632929;23;20047;-71
2023/10/11 11:26:41;;;;;;;25.58;20.42;;;;;;;;;;12634802;23;20020;-70
2023/10/11 11:31:53;;;;;;;23.85;19.27;;;;;;;;;;12628571;23;20029;-70
2023/10/11 11:36:54;;;;;;;27.92;20.02;;;;;;;;;;12634941;23;20463;-70
2023/10/11 11:42:19;;;;;;;27.30;18.85;;;;;;;;;;12634175;23;20031;-70
2023/10/11 11:47:21;;;;;;;25.30;18.65;;;;;;;;;;12633722;23;20036;-70
2023/10/11 11:52:21;;;;;;;26.02;18.58;;;;;;;;;;12632546;23;20025;-70
2023/10/11 11:57:28;;;;;;;22.88;19.73;;;;;;;;;;12632333;23;20034;-70
2023/10/11 12:02:26;;;;;;;20.67;17.08;;;;;;;;;;12632629;23;20028;-70
2023/10/11 12:07:25;;;;;;;20.35;17.65;;;;;;;;;;12634159;23;20055;-70
2023/10/11 12:12:21;;;;;;;21.48;17.13;;;;;;;;;;12633613;23;20485;-70
2023/10/11 12:17:18;;;;;;;18.40;16.27;;;;;;;;;;12632459;23;20028;-70
2023/10/11 12:22:32;;;;;;;19.40;16.80;;;;;;;;;;12639943;22;20100;-70
2023/10/11 12:28:18;;;;;;;;;;;;;;;;;;;;;
2023/10/11 12:33:43;;;;;;;18.90;14.82;;;;;;;;;;12625650;22;20422;-70
2023/10/11 12:38:39;;;;;;;17.88;13.30;;;;;;;;;;12633832;23;20027;-71
2023/10/11 12:43:36;;;;;;;18.83;13.05;;;;;;;;;;12631346;23;20243;-70
2023/10/11 12:48:37;;;;;;;16.52;12.15;;;;;;;;;;12633343;23;20027;-70
2023/10/11 12:54:08;;;;;;;13.02;11.77;;;;;;;;;;12643951;22;20029;-72
2023/10/11 12:59:10;;;;;;;12.38;11.18;;;;;;;;;;12632613;23;20033;-72
2023/10/11 13:04:08;;;;;;;;;;;;;;;;;;12633614;23;20025;-70
2023/10/11 13:09:14;;;;;;;16.85;13.43;;;;;;;;;;12631486;23;19942;-72
2023/10/11 13:19:51;;;;;;;16.45;13.35;;;;;;;;;;12571408;23;20021;-72
2023/10/11 13:30:47;;;;;;;16.50;13.60;;;;;;;;;;12687309;22;20016;-71
2023/10/11 13:35:43;;;;;;;22.08;13.25;;;;;;;;;;12693911;22;20039;-72
2023/10/11 13:40:40;;;;;;;16.00;12.85;;;;;;;;;;12694021;22;20020;-72
2023/10/11 13:45:40;;;;;;;16.40;12.77;;;;;;;;;;12694431;22;20086;-72
2023/10/11 13:55:51;;;;;;;16.27;13.60;;;;;;;;;;12611707;22;20021;-72
2023/10/11 14:06:42;;;;;;;14.57;13.18;;;;;;;;;;12608209;23;20016;-71
2023/10/11 14:18:56;;;;;;;16.00;13.57;;;;;;;;;;12315937;23;20023;-72
2023/10/11 14:29:26;;;;;;;14.85;13.43;;;;;;;;;;12698515;22;20017;-71
2023/10/11 14:40:21;;;;;;;19.70;12.55;;;;;;;;;;12693541;22;20016;-71
2023/10/11 14:45:21;;;;;;;15.70;12.70;;;;;;;;;;12694343;22;20091;-72
2023/10/11 15:12:06;;;;;;;16.30;13.63;;;;;;;;;;12696810;22;20016;-73
2023/10/11 15:35:04;;;;;;;14.98;12.55;;;;;;;;;;12675431;22;20008;-74
2023/10/11 15:40:01;;;;;;;16.60;12.32;;;;;;;;;;12696760;22;20560;-74
2023/10/11 15:44:58;;;;;;;14.30;12.82;;;;;;;;;;12695166;22;20410;-74
2023/10/11 15:49:57;;;;;;;15.70;14.13;;;;;;;;;;12696256;22;20362;-74
2023/10/11 15:54:53;;;;;;;19.63;13.60;;;;;;;;;;12694773;22;20020;-74
2023/10/11 15:59:52;;;;;;;16.45;13.57;;;;;;;;;;12696219;22;20028;-73
2023/10/11 16:04:49;;;;;;;15.23;13.63;;;;;;;;;;12690013;22;20034;-73
2023/10/11 16:09:46;;;;;;;15.68;13.43;;;;;;;;;;12693787;22;20154;-75
2023/10/11 16:26:00;;;;;;;15.57;13.70;;;;;;;;;;12601818;23;20025;-75
2023/10/11 16:31:45;;;;;;;15.85;12.88;;;;;;;;;;12642107;22;20110;-75
2023/10/11 16:37:05;;;;;;;16.30;13.32;;;;;;;;;;12629585;23;20362;-75
2023/10/11 16:42:01;;;;;;;15.70;13.98;;;;;;;;;;12633640;23;20020;-75
2023/10/11 16:46:57;;;;;;;14.30;12.88;;;;;;;;;;12633218;23;20020;-75
2023/10/11 16:51:54;;;;;;;18.75;13.90;;;;;;;;;;12631481;23;20024;-74
2023/10/11 16:56:53;;;;;;;21.15;14.25;;;;;;;;;;12626856;23;20028;-75
2023/10/11 17:13:38;;;;;;;15.63;14.00;;;;;;;;;;12583829;22;20032;-75
2023/10/11 17:18:38;;;;;;;18.58;14.27;;;;;;;;;;12625925;23;20071;-75
2023/10/11 17:23:35;;;;;;;18.83;13.10;;;;;;;;;;12631040;23;20031;-75
2023/10/11 17:28:35;;;;;;;18.92;14.20;;;;;;;;;;12632730;23;20635;-75
2023/10/11 17:33:31;;;;;;;17.45;14.32;;;;;;;;;;12625211;23;20039;-75
2023/10/11 17:38:28;;;;;;;18.55;14.23;;;;;;;;;;12633262;23;20028;-74
2023/10/11 17:43:26;;;;;;;22.42;15.27;;;;;;;;;;12656185;22;20335;-75
2023/10/11 17:48:23;;;;;;;22.10;14.65;;;;;;;;;;12636750;23;20025;-75
2023/10/11 17:53:20;;;;;;;18.02;13.95;;;;;;;;;;12659630;22;20236;-75
2023/10/11 17:58:20;;;;;;;18.85;13.30;;;;;;;;;;12636114;23;20052;-75
2023/10/11 18:03:16;;;;;;;15.23;13.73;;;;;;;;;;12635584;23;20028;-75
2023/10/11 18:08:13;;;;;;;17.00;14.32;;;;;;;;;;12636297;23;20032;-75
2023/10/11 18:13:09;;;;;;;20.77;14.38;;;;;;;;;;12635874;22;20493;-75
2023/10/11 18:18:08;;;;;;;17.60;15.50;;;;;;;;;;12636226;23;20029;-75
2023/10/11 18:23:07;;;;;;;25.63;15.63;;;;;;;;;;12635704;23;20484;-75
2023/10/11 18:28:05;;;;;;;19.08;15.25;;;;;;;;;;12637048;23;20044;-74
2023/10/11 18:33:02;;;;;;;22.45;16.60;;;;;;;;;;12635936;23;20475;-75
2023/10/11 18:37:59;;;;;;;28.58;17.85;;;;;;;;;;12629384;23;20119;-75
2023/10/11 18:42:56;;;;;;;21.75;17.20;;;;;;;;;;12635659;23;20024;-74
2023/10/11 18:47:52;;;;;;;22.25;17.45;;;;;;;;;;12635580;23;20025;-74
2023/10/11 18:52:57;;;;;;;23.88;18.35;;;;;;;;;;12635398;23;20068;-74
2023/10/11 18:57:54;;;;;;;28.50;18.00;;;;;;;;;;12635202;23;20032;-75
2023/10/11 19:02:51;;;;;;;27.42;18.08;;;;;;;;;;12633264;23;20569;-75
2023/10/11 19:07:52;;;;;;;19.73;17.05;;;;;;;;;;12635944;23;20025;-75
2023/10/11 19:12:49;;;;;;;22.25;18.45;;;;;;;;;;12633688;23;20032;-74
2023/10/11 19:17:50;;;;;;;27.05;17.98;;;;;;;;;;12635149;23;20047;-74
2023/10/11 19:22:47;;;;;;;31.13;20.15;;;;;;;;;;12633341;23;20017;-75
2023/10/11 19:27:45;;;;;;;25.90;17.80;;;;;;;;;;12635084;23;20359;-75
2023/10/11 19:32:41;;;;;;;22.60;18.92;;;;;;;;;;12634212;23;20414;-75
2023/10/11 19:37:41;;;;;;;27.98;18.38;;;;;;;;;;12628089;23;20036;-75
2023/10/11 19:42:41;;;;;;;24.02;17.63;;;;;;;;;;12634315;23;20391;-74
2023/10/11 19:47:38;;;;;;;21.10;17.50;;;;;;;;;;12634461;23;20079;-75
2023/10/11 19:52:36;;;;;;;26.83;16.48;;;;;;;;;;12632744;22;20135;-71
2023/10/11 19:57:33;;;;;;;24.33;16.95;;;;;;;;;;12633881;23;20028;-71
2023/10/11 20:02:29;;;;;;;21.98;15.95;;;;;;;;;;12633677;23;20025;-72
2023/10/11 20:07:26;;;;;;;25.83;16.33;;;;;;;;;;12632314;23;20028;-71
2023/10/11 20:12:23;;;;;;;18.80;15.52;;;;;;;;;;12633348;23;20052;-71
2023/10/11 20:17:19;;;;;;;27.88;16.15;;;;;;;;;;12631847;23;20024;-72
2023/10/11 20:22:16;;;;;;;26.08;17.13;;;;;;;;;;12632673;23;20024;-72
2023/10/11 20:27:12;;;;;;;27.23;19.05;;;;;;;;;;12633918;23;20020;-75
2023/10/11 20:32:10;;;;;;;28.65;18.08;;;;;;;;;;12632007;23;20336;-74
2023/10/11 20:37:06;;;;;;;24.05;18.80;;;;;;;;;;12626709;23;20025;-75
2023/10/11 20:42:02;;;;;;;25.02;18.48;;;;;;;;;;12634000;23;20075;-74
2023/10/11 20:46:59;;;;;;;24.70;18.33;;;;;;;;;;12633330;23;20501;-72
2023/10/11 20:51:58;;;;;;;16.45;5.55;;;;;;;;;;12631956;23;20072;-72
2023/10/11 20:57:01;;;;;;;4.28;3.67;;;;;;;;;;12633356;23;20385;-68
2023/10/11 21:01:58;;;;;;;5.47;3.50;;;;;;;;;;12633603;23;20028;-68
2023/10/11 21:06:54;;;;;;;3.70;2.80;;;;;;;;;;12633107;23;20071;-65
2023/10/11 21:11:51;;;;;;;6.50;3.30;;;;;;;;;;12633499;23;20117;-66
2023/10/11 21:16:47;;;;;;;3.50;3.00;;;;;;;;;;12632097;23;20024;-66
2023/10/11 21:21:47;;;;;;;5.88;3.45;;;;;;;;;;12632619;23;20047;-66
2023/10/11 21:26:44;;;;;;;5.72;4.10;;;;;;;;;;12631851;23;20024;-66
2023/10/11 21:31:41;;;;;;;7.72;4.22;;;;;;;;;;12632977;23;20027;-66
2023/10/11 21:36:39;;;;;;;5.88;4.80;;;;;;;;;;12623771;23;20025;-65
2023/10/11 21:41:36;;;;;;;5.95;4.78;;;;;;;;;;12633841;23;20057;-65
2023/10/11 21:46:32;;;;;;;5.43;4.82;;;;;;;;;;12633019;23;20527;-66
2023/10/11 21:51:29;;;;;;;5.80;5.30;;;;;;;;;;12633812;23;20104;-66
2023/10/11 21:56:28;;;;;;;6.13;5.63;;;;;;;;;;12627103;23;20024;-66
2023/10/11 22:01:25;;;;;;;5.80;5.30;;;;;;;;;;12633980;23;20028;-63
2023/10/11 22:06:22;;;;;;;6.53;5.88;;;;;;;;;;12633015;23;20029;-63
2023/10/11 22:11:19;;;;;;;6.00;5.60;;;;;;;;;;12633455;23;20424;-64
2023/10/11 22:16:15;;;;;;;6.45;5.95;;;;;;;;;;12634169;23;20083;-63
2023/10/11 22:21:14;;;;;;;6.78;5.78;;;;;;;;;;12632499;23;20040;-64
2023/10/11 22:26:11;;;;;;;6.55;6.05;;;;;;;;;;12633103;23;20107;-64
2023/10/11 22:31:11;;;;;;;7.53;6.43;;;;;;;;;;12635189;23;20024;-66
2023/10/11 22:36:12;;;;;;;6.28;5.78;;;;;;;;;;12636294;23;20356;-65
2023/10/11 22:41:13;;;;;;;6.22;5.80;;;;;;;;;;12629507;23;20024;-65
2023/10/11 22:46:11;;;;;;;6.05;5.47;;;;;;;;;;12635707;23;20359;-66
2023/10/11 22:51:08;;;;;;;8.35;5.78;;;;;;;;;;12635257;23;20025;-64
2023/10/11 22:56:05;;;;;;;6.15;5.63;;;;;;;;;;12635838;23;20055;-65
2023/10/11 23:01:01;;;;;;;6.53;5.30;;;;;;;;;;12630127;23;20028;-66
2023/10/11 23:05:58;;;;;;;6.43;5.53;;;;;;;;;;12635653;23;20509;-65
2023/10/11 23:10:54;;;;;;;5.90;5.22;;;;;;;;;;12635817;23;20024;-66
2023/10/11 23:15:54;;;;;;;6.25;5.75;;;;;;;;;;12635953;23;20348;-65
2023/10/11 23:20:57;;;;;;;6.38;5.78;;;;;;;;;;12633620;23;20024;-65
2023/10/11 23:25:57;;;;;;;6.47;5.88;;;;;;;;;;12636186;23;20028;-65
2023/10/11 23:30:57;;;;;;;6.07;5.57;;;;;;;;;;12635824;23;20454;-65
2023/10/11 23:36:01;;;;;;;7.25;5.75;;;;;;;;;;12634137;23;20406;-65
2023/10/11 23:46:15;;;;;;;7.13;6.38;;;;;;;;;;12634354;23;20047;-66
2023/10/11 23:51:15;;;;;;;7.75;6.90;;;;;;;;;;12634659;23;20024;-66
2023/10/11 23:56:17;;;;;;;8.73;7.13;;;;;;;;;;12634893;23;20099;-66
